Time;durP1;ratioP1;P1;durP2;ratioP2;P2;SDS_P1;SDS_P2;PMS_P1;PMS_P2;Temp;Humidity;BMP_temperature;BMP_pressure;BME280_temperature;BME280_humidity;BME280_pressure;Samples;Min_cycle;Max_cycle;Signal;HPM_P1;HPM_P2
2024/04/03 00:01:20;;;;;;;1.15;0.47;;;12.60;69.30;;;;;;2310714;56;21051;-68
2024/04/03 00:03:48;;;;;;;2.15;0.82;;;12.70;69.40;;;;;;2313783;55;20967;-67
2024/04/03 00:06:15;;;;;;;2.58;0.60;;;12.60;69.40;;;;;;2285564;56;21382;-67
2024/04/03 00:08:42;;;;;;;1.33;0.40;;;12.60;69.60;;;;;;2311093;56;21098;-67
2024/04/03 00:11:08;;;;;;;0.73;0.30;;;12.60;69.60;;;;;;2308562;55;21045;-67
2024/04/03 00:13:34;;;;;;;2.53;0.52;;;12.60;69.70;;;;;;2290255;56;21461;-67
2024/04/03 00:16:00;;;;;;;2.22;0.60;;;12.50;69.60;;;;;;2311466;56;21043;-67
2024/04/03 00:18:27;;;;;;;1.73;0.60;;;12.50;69.70;;;;;;2310519;55;21016;-66
2024/04/03 00:21:03;;;;;;;2.97;0.57;;;12.60;69.90;;;;;;2311264;55;21347;-68
2024/04/03 00:23:29;;;;;;;1.73;0.50;;;12.50;69.30;;;;;;2310034;55;21063;-67
2024/04/03 00:25:59;;;;;;;2.28;0.47;;;12.50;69.90;;;;;;2311301;56;21051;-67
2024/04/03 00:28:28;;;;;;;2.53;0.50;;;12.50;69.80;;;;;;2310752;56;21031;-68
2024/04/03 00:30:54;;;;;;;1.15;0.50;;;12.50;70.10;;;;;;2311529;56;21019;-67
2024/04/03 00:33:24;;;;;;;2.25;0.60;;;12.60;70.10;;;;;;2310976;55;21046;-67
2024/04/03 00:35:59;;;;;;;5.82;0.68;;;12.60;70.00;;;;;;2308207;55;21043;-67
2024/04/03 00:38:26;;;;;;;1.23;0.45;;;12.50;69.60;;;;;;2310390;55;20939;-66
2024/04/03 00:40:56;;;;;;;1.92;0.50;;;12.50;70.10;;;;;;2311273;55;20987;-67
2024/04/03 00:43:22;;;;;;;3.45;0.60;;;12.50;70.20;;;;;;2310603;55;21722;-68
2024/04/03 00:45:49;;;;;;;1.65;0.52;;;12.60;70.40;;;;;;2299262;55;21135;-68
2024/04/03 00:48:15;;;;;;;1.90;0.50;;;12.60;71.10;;;;;;2280335;56;20992;-68
2024/04/03 00:50:43;;;;;;;2.22;0.60;;;12.60;70.50;;;;;;2310121;55;21641;-67
2024/04/03 00:53:09;;;;;;;6.25;0.70;;;12.60;70.40;;;;;;2311191;56;21433;-67
2024/04/03 00:55:37;;;;;;;1.83;0.70;;;12.60;70.40;;;;;;2311029;55;20940;-67
2024/04/03 00:58:07;;;;;;;2.30;0.75;;;12.60;70.50;;;;;;2297591;56;20997;-66
2024/04/03 01:00:35;;;;;;;2.53;0.70;;;12.60;70.30;;;;;;2302886;55;21016;-67
2024/04/03 01:03:04;;;;;;;2.10;0.50;;;12.60;70.50;;;;;;2311542;56;20990;-66
2024/04/03 01:05:31;;;;;;;1.52;0.50;;;12.60;70.40;;;;;;2310413;56;20947;-68
2024/04/03 01:07:57;;;;;;;1.90;0.40;;;12.60;70.60;;;;;;2311551;55;21059;-66
2024/04/03 01:10:23;;;;;;;1.50;0.50;;;12.60;70.60;;;;;;2286626;56;21108;-67
2024/04/03 01:12:54;;;;;;;1.85;0.50;;;12.60;70.70;;;;;;2310851;55;21012;-68
2024/04/03 01:15:22;;;;;;;2.47;0.45;;;12.60;70.40;;;;;;2311149;56;20978;-66
2024/04/03 01:17:48;;;;;;;2.28;0.50;;;12.70;70.70;;;;;;2310531;55;21524;-67
2024/04/03 01:20:16;;;;;;;2.55;0.50;;;12.70;70.70;;;;;;2310482;56;21465;-68
2024/04/03 01:22:42;;;;;;;1.52;0.50;;;12.70;70.70;;;;;;2310795;56;20972;-67
2024/04/03 01:25:11;;;;;;;1.20;0.50;;;12.70;70.80;;;;;;2308966;55;21013;-68
2024/04/03 01:27:38;;;;;;;3.20;0.68;;;12.70;70.70;;;;;;2290258;55;21841;-67
2024/04/03 01:30:04;;;;;;;1.25;0.50;;;12.70;70.80;;;;;;2311011;55;21062;-66
2024/04/03 01:32:32;;;;;;;2.20;0.60;;;12.70;70.90;;;;;;2310326;56;21966;-67
2024/04/03 01:34:58;;;;;;;2.03;0.80;;;12.70;70.90;;;;;;2311205;56;20940;-68
2024/04/03 01:37:26;;;;;;;5.12;0.93;;;12.70;70.90;;;;;;2310024;56;20959;-67
2024/04/03 01:39:52;;;;;;;2.05;0.60;;;12.70;70.90;;;;;;2310915;56;21897;-68
2024/04/03 01:42:20;;;;;;;2.30;0.80;;;12.70;70.90;;;;;;2310506;56;21007;-68
2024/04/03 01:44:48;;;;;;;1.90;0.70;;;12.80;71.00;;;;;;2310409;55;21023;-67
2024/04/03 01:47:14;;;;;;;2.33;0.70;;;12.80;70.90;;;;;;2311020;55;21367;-68
2024/04/03 01:49:40;;;;;;;1.42;0.57;;;12.80;70.90;;;;;;2310066;55;21142;-67
2024/04/03 01:52:06;;;;;;;2.20;0.50;;;12.80;70.90;;;;;;2310302;55;20939;-67
2024/04/03 01:54:33;;;;;;;1.37;0.55;;;12.80;71.50;;;;;;2309760;56;20983;-68
2024/04/03 01:56:59;;;;;;;1.73;0.57;;;12.80;70.70;;;;;;2311503;56;21047;-67
2024/04/03 01:59:25;;;;;;;1.45;0.50;;;12.80;70.60;;;;;;2286778;56;20943;-66
2024/04/03 02:01:51;;;;;;;2.28;0.50;;;12.80;70.50;;;;;;2310679;55;21517;-67
2024/04/03 02:04:18;;;;;;;1.45;0.40;;;12.80;70.40;;;;;;2310707;55;21280;-68
2024/04/03 02:06:44;;;;;;;1.60;0.60;;;12.80;70.30;;;;;;2295475;55;21348;-67
2024/04/03 02:09:10;;;;;;;2.85;0.62;;;12.80;70.20;;;;;;2304020;55;21028;-67
2024/04/03 02:11:37;;;;;;;7.47;0.60;;;12.70;70.20;;;;;;2310529;56;20987;-68
2024/04/03 02:14:03;;;;;;;3.00;0.75;;;12.80;70.40;;;;;;2310735;56;20974;-67
2024/04/03 02:16:30;;;;;;;2.17;0.70;;;12.70;70.30;;;;;;2310799;55;21349;-67
2024/04/03 02:18:57;;;;;;;1.70;0.50;;;12.70;70.40;;;;;;2311058;55;20979;-67
2024/04/03 02:21:23;;;;;;;2.15;0.60;;;12.70;70.40;;;;;;2310533;55;21002;-67
2024/04/03 02:23:49;;;;;;;1.65;0.50;;;12.70;70.40;;;;;;2310884;55;21672;-67
2024/04/03 02:26:16;;;;;;;3.17;0.65;;;12.70;70.30;;;;;;2311101;56;20959;-67
2024/04/03 02:28:42;;;;;;;2.03;0.75;;;12.70;70.30;;;;;;2310925;56;21010;-67
2024/04/03 02:31:08;;;;;;;1.98;0.73;;;12.70;70.30;;;;;;2310259;56;20939;-67
2024/04/03 02:33:34;;;;;;;1.90;0.70;;;12.70;70.20;;;;;;2310741;55;21082;-67
2024/04/03 02:36:08;;;;;;;2.47;0.80;;;12.70;70.30;;;;;;2310165;55;20980;-67
2024/04/03 02:38:36;;;;;;;1.60;0.70;;;12.60;69.80;;;;;;2310252;56;21063;-66
2024/04/03 02:41:02;;;;;;;2.08;0.70;;;12.60;70.20;;;;;;2311239;55;20938;-67
2024/04/03 02:43:31;;;;;;;1.98;0.57;;;12.60;70.30;;;;;;2310782;56;21036;-67
2024/04/03 02:45:58;;;;;;;1.65;0.60;;;12.60;70.10;;;;;;2310935;55;21035;-68
2024/04/03 02:48:25;;;;;;;1.67;0.52;;;12.60;70.30;;;;;;2310684;55;21327;-67
2024/04/03 02:51:03;;;;;;;2.92;0.65;;;12.60;70.40;;;;;;2310887;56;20963;-67
2024/04/03 02:53:32;;;;;;;2.90;0.60;;;12.60;69.80;;;;;;2311295;55;21011;-67
2024/04/03 02:56:08;;;;;;;3.30;0.70;;;12.60;71.00;;;;;;2311191;56;20972;-67
2024/04/03 02:58:35;;;;;;;3.05;0.80;;;12.60;70.40;;;;;;2310817;56;21043;-67
2024/04/03 03:01:09;;;;;;;2.95;0.68;;;12.60;70.50;;;;;;2311467;55;21042;-67
2024/04/03 03:03:36;;;;;;;2.22;0.70;;;12.50;69.90;;;;;;2310889;55;21055;-67
2024/04/03 03:06:04;;;;;;;1.65;0.57;;;12.50;70.20;;;;;;2311368;55;21580;-66
2024/04/03 03:08:31;;;;;;;1.40;0.50;;;12.50;70.20;;;;;;2310800;55;20963;-67
2024/04/03 03:10:58;;;;;;;3.15;0.98;;;12.50;70.30;;;;;;2310677;55;21299;-67
2024/04/03 03:13:28;;;;;;;1.65;0.77;;;12.50;70.30;;;;;;2310634;55;20987;-68
2024/04/03 03:15:58;;;;;;;3.53;0.73;;;12.50;70.30;;;;;;2311199;56;20931;-66
2024/04/03 03:18:25;;;;;;;1.67;0.65;;;12.50;70.20;;;;;;2310555;55;21011;-67
2024/04/03 03:20:52;;;;;;;2.37;0.90;;;12.50;70.40;;;;;;2310639;55;20975;-67
2024/04/03 03:23:18;;;;;;;1.42;0.60;;;12.50;70.40;;;;;;2311021;56;20928;-66
2024/04/03 03:25:48;;;;;;;2.47;0.80;;;12.50;70.40;;;;;;2310596;55;21014;-67
2024/04/03 03:28:15;;;;;;;3.15;0.90;;;12.50;70.20;;;;;;2310894;55;20955;-67
2024/04/03 03:30:51;;;;;;;2.20;0.90;;;12.40;70.30;;;;;;2310575;55;21560;-67
2024/04/03 03:33:17;;;;;;;2.80;0.90;;;12.40;69.90;;;;;;2311163;55;21002;-67
2024/04/03 03:35:56;;;;;;;3.58;0.88;;;12.40;70.40;;;;;;2309510;55;21754;-67
2024/04/03 03:38:22;;;;;;;2.45;0.90;;;12.40;70.00;;;;;;2310794;55;21447;-67
2024/04/03 03:40:49;;;;;;;2.30;0.95;;;12.40;70.30;;;;;;2310805;55;20947;-67
2024/04/03 03:43:15;;;;;;;2.85;0.98;;;12.30;70.10;;;;;;2288635;56;20963;-67
2024/04/03 03:45:51;;;;;;;3.10;0.80;;;12.30;70.10;;;;;;2310622;56;21082;-67
2024/04/03 03:48:17;;;;;;;1.65;0.60;;;12.30;69.80;;;;;;2310036;56;21031;-66
2024/04/03 03:53:32;;;;;;;1.70;0.62;;;12.30;70.20;;;;;;2310852;55;21808;-67
2024/04/03 03:56:07;;;;;;;2.05;0.80;;;12.10;70.10;;;;;;2310844;55;21019;-66
2024/04/03 03:58:34;;;;;;;2.92;0.80;;;12.20;69.80;;;;;;2310651;55;21102;-66
2024/04/03 04:01:04;;;;;;;1.67;0.60;;;12.20;70.30;;;;;;2310873;56;21846;-67
2024/04/03 04:03:30;;;;;;;2.20;0.85;;;12.20;70.20;;;;;;2310763;56;20959;-68
2024/04/03 04:06:00;;;;;;;1.42;0.60;;;12.20;70.40;;;;;;2309915;55;20956;-67
2024/04/03 04:08:26;;;;;;;3.20;0.80;;;12.20;70.20;;;;;;2310639;55;21043;-68
2024/04/03 04:10:56;;;;;;;2.85;0.98;;;12.20;70.40;;;;;;2310609;56;20963;-66
2024/04/03 04:13:22;;;;;;;2.83;1.00;;;12.20;70.50;;;;;;2311199;55;21738;-66
2024/04/03 04:15:48;;;;;;;2.72;0.80;;;12.10;70.30;;;;;;2310449;56;21003;-67
2024/04/03 04:18:15;;;;;;;2.55;0.80;;;12.10;70.30;;;;;;2311059;56;21754;-68
2024/04/03 04:20:55;;;;;;;1.95;0.70;;;12.10;70.40;;;;;;2291072;55;21057;-67
2024/04/03 04:23:22;;;;;;;2.20;0.70;;;12.10;70.00;;;;;;2311205;55;21004;-67
2024/04/03 04:26:04;;;;;;;3.12;0.85;;;12.10;70.60;;;;;;2310835;55;20944;-66
2024/04/03 04:28:34;;;;;;;1.95;0.73;;;12.20;70.50;;;;;;2306436;55;21549;-68
2024/04/03 04:31:01;;;;;;;1.80;0.70;;;12.20;70.80;;;;;;2293936;56;20967;-67
2024/04/03 04:33:47;;;;;;;2.28;0.85;;;12.20;70.90;;;;;;2310345;56;21029;-67
2024/04/03 04:36:13;;;;;;;2.80;0.60;;;12.20;70.10;;;;;;2310387;56;20955;-68
2024/04/03 04:38:39;;;;;;;1.73;0.70;;;12.20;71.10;;;;;;2310711;56;21368;-67
2024/04/03 04:41:07;;;;;;;2.47;0.88;;;12.20;71.10;;;;;;2310218;55;21492;-68
2024/04/03 04:43:33;;;;;;;1.95;0.75;;;12.20;71.20;;;;;;2310686;56;20944;-68
2024/04/03 04:46:01;;;;;;;2.65;0.85;;;12.20;71.20;;;;;;2310437;56;21019;-67
2024/04/03 04:48:28;;;;;;;3.20;0.77;;;12.30;71.30;;;;;;2310484;56;21025;-66
2024/04/03 04:50:56;;;;;;;1.75;0.70;;;12.30;71.30;;;;;;2310273;56;20963;-67
2024/04/03 04:53:23;;;;;;;2.70;0.80;;;12.30;71.30;;;;;;2311054;55;21946;-68
2024/04/03 04:56:22;;;;;;;2.40;0.75;;;12.30;71.30;;;;;;2311327;55;21026;-67
2024/04/03 04:58:50;;;;;;;2.33;0.60;;;12.40;70.10;;;;;;2310396;56;21094;-66
2024/04/03 05:01:16;;;;;;;2.47;0.85;;;12.40;71.40;;;;;;2310333;55;21681;-67
2024/04/03 05:03:42;;;;;;;2.70;0.73;;;12.40;71.40;;;;;;2310274;55;21398;-67
2024/04/03 05:06:17;;;;;;;1.65;0.60;;;12.40;71.40;;;;;;2310504;55;20963;-67
2024/04/03 05:08:43;;;;;;;2.65;0.60;;;12.40;71.00;;;;;;2310707;56;21433;-67
2024/04/03 05:11:09;;;;;;;1.65;0.68;;;12.50;71.50;;;;;;2310725;55;20979;-67
2024/04/03 05:13:36;;;;;;;2.05;0.60;;;12.50;71.50;;;;;;2311039;55;21023;-67
2024/04/03 05:16:20;;;;;;;3.60;0.90;;;12.50;71.40;;;;;;2310786;55;20987;-67
2024/04/03 05:18:50;;;;;;;3.70;0.77;;;12.50;70.40;;;;;;2310111;55;21366;-67
2024/04/03 05:21:17;;;;;;;2.65;0.88;;;12.50;71.20;;;;;;2310858;56;21003;-68
2024/04/03 05:23:43;;;;;;;3.08;1.05;;;12.50;71.10;;;;;;2311163;55;21047;-67
2024/04/03 05:26:13;;;;;;;2.22;0.95;;;12.50;71.10;;;;;;2310924;55;20971;-67
2024/04/03 05:28:39;;;;;;;2.47;0.80;;;12.50;71.20;;;;;;2310987;55;21003;-67
2024/04/03 05:31:09;;;;;;;2.05;0.70;;;12.50;71.30;;;;;;2310785;55;21074;-67
2024/04/03 05:33:38;;;;;;;1.98;0.70;;;12.60;71.30;;;;;;2309738;55;20951;-66
2024/04/03 05:36:06;;;;;;;2.03;0.60;;;12.60;71.40;;;;;;2291998;56;21017;-68
2024/04/03 05:38:32;;;;;;;4.45;1.00;;;12.60;71.50;;;;;;2306954;56;21003;-66
2024/04/03 05:40:59;;;;;;;3.28;1.25;;;12.60;71.50;;;;;;2287152;56;21029;-68
2024/04/03 05:43:28;;;;;;;3.12;1.30;;;12.60;71.50;;;;;;2310739;55;21225;-67
2024/04/03 05:45:55;;;;;;;3.78;1.25;;;12.60;71.50;;;;;;2310834;55;20959;-67
2024/04/03 05:48:22;;;;;;;2.72;1.00;;;12.60;71.50;;;;;;2285296;56;20979;-68
2024/04/03 05:51:06;;;;;;;2.60;1.00;;;12.70;71.40;;;;;;2279445;55;20987;-67
2024/04/03 05:53:34;;;;;;;2.22;0.85;;;12.70;71.40;;;;;;2279952;55;20947;-67
2024/04/03 05:56:03;;;;;;;3.22;1.12;;;12.70;71.30;;;;;;2274246;56;21054;-68
2024/04/03 05:58:30;;;;;;;3.05;1.00;;;12.70;71.30;;;;;;2264021;56;21016;-67
2024/04/03 06:01:01;;;;;;;3.25;0.90;;;12.70;71.30;;;;;;2279368;54;20999;-67
2024/04/03 06:03:27;;;;;;;4.45;1.00;;;12.60;71.20;;;;;;2280191;54;21020;-67
2024/04/03 06:05:57;;;;;;;2.53;0.93;;;12.70;71.40;;;;;;2279717;54;21013;-67
2024/04/03 06:08:24;;;;;;;3.40;0.95;;;12.70;71.20;;;;;;2258703;56;21050;-67
2024/04/03 06:10:52;;;;;;;2.40;0.77;;;12.70;71.40;;;;;;2279448;55;20942;-66
2024/04/03 06:13:22;;;;;;;2.37;0.80;;;12.70;71.50;;;;;;2310656;55;20992;-67
2024/04/03 06:15:48;;;;;;;3.05;0.65;;;12.70;71.60;;;;;;2311034;55;20975;-67
2024/04/03 06:18:14;;;;;;;1.75;0.60;;;12.70;71.70;;;;;;2310666;56;20968;-67
2024/04/03 06:20:40;;;;;;;2.90;0.73;;;12.70;71.80;;;;;;2311000;56;20932;-67
2024/04/03 06:23:10;;;;;;;2.33;0.68;;;12.70;71.90;;;;;;2311131;55;21054;-67
2024/04/03 06:25:37;;;;;;;2.35;0.80;;;12.80;72.00;;;;;;2311137;55;21315;-68
2024/04/03 06:28:05;;;;;;;2.05;0.70;;;12.70;72.10;;;;;;2310280;56;20964;-67
2024/04/03 06:30:34;;;;;;;1.85;0.55;;;12.80;72.20;;;;;;2311007;55;21755;-67
2024/04/03 06:33:01;;;;;;;1.95;0.60;;;12.80;72.20;;;;;;2293924;55;21843;-68
2024/04/03 06:35:28;;;;;;;1.98;0.90;;;12.80;72.40;;;;;;2305323;55;20986;-67
2024/04/03 06:37:54;;;;;;;3.37;0.98;;;12.90;72.60;;;;;;2311200;55;21035;-67
2024/04/03 06:40:21;;;;;;;2.83;1.17;;;12.90;72.70;;;;;;2311388;55;21448;-68
2024/04/03 06:42:47;;;;;;;2.62;0.80;;;13.00;72.80;;;;;;2311337;56;20983;-67
2024/04/03 06:45:16;;;;;;;1.40;0.60;;;13.00;72.90;;;;;;2310520;55;21057;-67
2024/04/03 06:47:42;;;;;;;1.42;0.60;;;13.00;72.80;;;;;;2310854;55;20955;-68
2024/04/03 06:50:08;;;;;;;1.75;0.60;;;13.10;73.00;;;;;;2310628;56;20975;-67
2024/04/03 06:52:36;;;;;;;2.83;0.57;;;13.10;73.00;;;;;;2305795;55;20984;-67
2024/04/03 06:55:02;;;;;;;1.65;0.50;;;13.20;73.10;;;;;;2292295;56;21031;-67
2024/04/03 06:57:29;;;;;;;2.72;0.70;;;13.20;73.10;;;;;;2311180;55;20940;-67
2024/04/03 07:00:18;;;;;;;1.60;0.60;;;13.20;73.10;;;;;;2288501;55;22079;-68
2024/04/03 07:02:47;;;;;;;1.87;0.57;;;13.30;72.30;;;;;;2310906;55;20940;-68
2024/04/03 07:05:14;;;;;;;0.88;0.40;;;13.30;73.20;;;;;;2288197;56;21059;-67
2024/04/03 07:07:40;;;;;;;1.45;0.55;;;13.40;73.30;;;;;;2310355;55;21007;-67
2024/04/03 07:10:08;;;;;;;2.40;0.40;;;13.40;73.30;;;;;;2310720;55;21015;-67
2024/04/03 07:12:37;;;;;;;1.85;0.45;;;13.50;73.20;;;;;;2310544;55;21390;-67
2024/04/03 07:15:04;;;;;;;1.33;0.43;;;13.60;73.40;;;;;;2309553;56;21003;-67
2024/04/03 07:17:33;;;;;;;1.35;0.50;;;13.60;74.10;;;;;;2310859;55;20998;-67
2024/04/03 07:19:59;;;;;;;1.87;0.50;;;13.70;73.20;;;;;;2310483;55;21268;-68
2024/04/03 07:22:26;;;;;;;2.08;0.40;;;13.70;73.30;;;;;;2289076;55;21456;-67
2024/04/03 07:24:52;;;;;;;2.05;0.60;;;13.80;73.40;;;;;;2311194;56;21059;-68
2024/04/03 07:27:26;;;;;;;2.20;0.60;;;13.80;73.30;;;;;;2310666;56;21314;-67
2024/04/03 07:29:52;;;;;;;1.52;0.52;;;13.90;72.90;;;;;;2311094;56;20971;-68
2024/04/03 07:32:19;;;;;;;1.42;0.47;;;13.90;73.30;;;;;;2309206;56;21027;-68
2024/04/03 07:34:45;;;;;;;1.25;0.40;;;14.00;73.30;;;;;;2288326;55;21002;-67
2024/04/03 07:37:11;;;;;;;2.20;0.60;;;14.10;73.30;;;;;;2310579;55;20999;-68
2024/04/03 07:39:38;;;;;;;1.65;0.50;;;14.20;73.30;;;;;;2311126;56;21828;-67
2024/04/03 07:42:04;;;;;;;0.98;0.40;;;14.20;73.30;;;;;;2311159;55;21103;-68
2024/04/03 07:44:31;;;;;;;1.33;0.50;;;14.30;73.50;;;;;;2310514;55;20995;-68
2024/04/03 07:46:57;;;;;;;1.30;0.60;;;14.30;73.40;;;;;;2310663;55;21387;-68
2024/04/03 07:49:23;;;;;;;1.10;0.47;;;14.40;73.40;;;;;;2310360;56;20959;-68
2024/04/03 07:51:50;;;;;;;1.77;0.60;;;14.50;73.40;;;;;;2310893;55;21048;-68
2024/04/03 07:54:16;;;;;;;2.47;0.65;;;14.50;73.30;;;;;;2310497;55;21006;-68
2024/04/03 07:56:42;;;;;;;2.55;0.70;;;14.60;73.90;;;;;;2314073;55;21575;-68
2024/04/03 07:59:08;;;;;;;3.00;1.00;;;14.70;73.30;;;;;;2287096;56;20953;-68
2024/04/03 08:01:35;;;;;;;2.00;0.70;;;14.70;73.30;;;;;;2311085;55;21318;-68
2024/04/03 08:04:04;;;;;;;1.52;0.70;;;14.80;73.30;;;;;;2307103;55;21069;-68
2024/04/03 08:06:30;;;;;;;2.83;0.70;;;14.90;73.30;;;;;;2291549;55;20955;-68
2024/04/03 08:08:57;;;;;;;2.25;0.75;;;14.90;73.20;;;;;;2287596;56;20959;-68
2024/04/03 08:11:26;;;;;;;1.98;0.70;;;15.00;73.20;;;;;;2310853;56;21572;-67
2024/04/03 08:13:52;;;;;;;2.00;0.70;;;15.10;73.20;;;;;;2310193;55;21487;-68
2024/04/03 08:16:19;;;;;;;1.77;0.60;;;15.20;73.00;;;;;;2310676;56;20955;-68
2024/04/03 08:18:45;;;;;;;1.17;0.50;;;15.20;72.70;;;;;;2310834;55;20948;-68
2024/04/03 08:21:11;;;;;;;2.22;0.57;;;15.30;72.80;;;;;;2310603;56;21006;-68
2024/04/03 08:23:38;;;;;;;1.58;0.80;;;15.30;72.80;;;;;;2310996;56;21007;-68
2024/04/03 08:26:09;;;;;;;1.10;0.40;;;15.40;72.80;;;;;;2312072;56;20948;-68
2024/04/03 08:28:39;;;;;;;1.90;0.55;;;15.40;72.60;;;;;;2309221;56;20989;-68
2024/04/03 08:31:15;;;;;;;1.62;0.52;;;15.50;72.00;;;;;;2292663;56;20958;-68
2024/04/03 08:33:42;;;;;;;1.05;0.47;;;15.50;71.40;;;;;;2310258;55;21031;-68
2024/04/03 08:36:10;;;;;;;2.30;0.60;;;15.50;72.10;;;;;;2309995;55;20962;-68
2024/04/03 08:38:37;;;;;;;1.70;0.65;;;15.60;71.70;;;;;;2310810;56;21272;-68
2024/04/03 08:41:04;;;;;;;0.95;0.37;;;15.60;71.80;;;;;;2311121;55;21039;-67
2024/04/03 08:43:31;;;;;;;1.42;0.52;;;15.60;71.90;;;;;;2310177;55;21023;-68
2024/04/03 08:45:59;;;;;;;1.92;0.60;;;15.70;71.70;;;;;;2308876;55;21843;-68
2024/04/03 08:48:26;;;;;;;2.58;0.70;;;15.70;71.80;;;;;;2289358;56;21558;-69
2024/04/03 08:50:52;;;;;;;2.78;0.90;;;15.70;71.70;;;;;;2310768;55;20974;-68
2024/04/03 08:53:21;;;;;;;1.98;0.70;;;15.70;71.70;;;;;;2309586;55;21031;-69
2024/04/03 08:55:50;;;;;;;1.90;0.70;;;15.70;71.60;;;;;;2310721;55;21002;-68
2024/04/03 08:58:18;;;;;;;4.22;0.93;;;15.70;71.70;;;;;;2310777;55;21409;-69
2024/04/03 09:00:44;;;;;;;2.35;0.70;;;15.70;71.70;;;;;;2313858;55;21551;-68
2024/04/03 09:03:13;;;;;;;2.28;0.60;;;15.80;71.90;;;;;;2310791;55;21058;-67
2024/04/03 09:05:40;;;;;;;1.75;0.73;;;15.80;71.90;;;;;;2288106;55;20917;-68
2024/04/03 09:08:10;;;;;;;2.58;0.80;;;15.80;71.90;;;;;;2293771;56;21075;-69
2024/04/03 09:10:43;;;;;;;2.35;0.70;;;15.80;71.50;;;;;;2311411;55;21145;-68
2024/04/03 09:13:10;;;;;;;2.05;0.60;;;15.80;71.70;;;;;;2301327;55;20969;-69
2024/04/03 09:15:37;;;;;;;2.10;0.62;;;15.80;71.80;;;;;;2298747;55;21259;-68
2024/04/03 09:18:07;;;;;;;1.58;0.60;;;15.80;71.50;;;;;;2287241;55;20967;-68
2024/04/03 09:20:34;;;;;;;2.12;0.80;;;15.80;71.50;;;;;;2309556;55;21413;-69
2024/04/03 09:23:00;;;;;;;3.85;0.70;;;15.80;71.40;;;;;;2310769;56;21067;-68
2024/04/03 09:25:31;;;;;;;3.75;1.40;;;15.80;71.40;;;;;;2288411;55;1336960;-67
2024/04/03 09:28:21;;;;;;;3.10;0.95;;;15.80;71.20;;;;;;2311244;55;20987;-68
2024/04/03 09:30:50;;;;;;;1.87;0.70;;;15.80;70.50;;;;;;2311113;56;21003;-67
2024/04/03 09:33:16;;;;;;;1.58;0.50;;;15.80;71.20;;;;;;2310476;55;21047;-68
2024/04/03 09:35:43;;;;;;;1.98;0.65;;;15.80;71.40;;;;;;2311190;55;21066;-68
2024/04/03 09:38:10;;;;;;;2.20;0.70;;;15.80;71.50;;;;;;2310668;56;21003;-69
2024/04/03 09:40:38;;;;;;;2.05;0.80;;;15.80;71.60;;;;;;2310859;55;20948;-68
2024/04/03 09:43:09;;;;;;;1.58;0.60;;;15.80;71.60;;;;;;2310475;56;21248;-68
2024/04/03 09:45:35;;;;;;;1.50;0.70;;;15.80;71.50;;;;;;2310619;56;20936;-68
2024/04/03 09:48:09;;;;;;;1.77;0.60;;;15.70;71.40;;;;;;2310451;55;23337;-67
2024/04/03 09:50:42;;;;;;;2.53;0.70;;;15.70;71.00;;;;;;2310794;55;20944;-70
2024/04/03 09:53:17;;;;;;;2.00;0.60;;;15.70;71.30;;;;;;2311214;55;21833;-68
2024/04/03 09:55:45;;;;;;;1.00;0.45;;;15.70;70.80;;;;;;2310036;55;20971;-67
2024/04/03 09:58:14;;;;;;;2.15;0.60;;;15.70;71.20;;;;;;2310210;55;22001;-68
2024/04/03 10:00:41;;;;;;;2.42;0.55;;;15.70;71.30;;;;;;2311041;55;20976;-68
2024/04/03 10:03:20;;;;;;;2.20;0.68;;;15.70;71.40;;;;;;2309154;55;20960;-68
2024/04/03 10:05:57;;;;;;;1.95;0.80;;;15.70;70.70;;;;;;2310750;55;20999;-68
2024/04/03 20:22:05;;;;;;;2.12;0.52;;;15.60;71.50;;;;;;2529856;53;22793;-68
2024/04/03 20:24:31;;;;;;;1.50;0.60;;;16.50;75.20;;;;;;2299706;54;20963;-69
2024/04/03 20:26:57;;;;;;;3.20;0.85;;;16.50;75.30;;;;;;2298837;54;20971;-69
2024/04/03 20:29:24;;;;;;;2.45;0.60;;;16.50;75.30;;;;;;2298515;54;21058;-68
2024/04/03 20:31:50;;;;;;;3.42;0.80;;;16.50;75.40;;;;;;2299293;54;21030;-70
2024/04/03 20:34:16;;;;;;;3.83;0.90;;;16.50;75.40;;;;;;2298542;54;20955;-69
2024/04/03 20:36:43;;;;;;;2.08;0.85;;;16.50;75.40;;;;;;2300337;54;20947;-69
2024/04/03 20:39:10;;;;;;;3.12;0.80;;;16.60;75.50;;;;;;2292227;54;20954;-69
2024/04/03 20:41:37;;;;;;;6.28;1.05;;;16.60;75.40;;;;;;2291200;54;20987;-69
2024/04/03 20:44:03;;;;;;;2.85;0.68;;;16.60;75.50;;;;;;2300009;54;20936;-69
2024/04/03 20:46:31;;;;;;;2.03;0.60;;;16.60;75.40;;;;;;2299041;54;20927;-68
2024/04/03 20:48:57;;;;;;;3.30;0.70;;;16.60;75.30;;;;;;2298415;54;20991;-69
2024/04/03 20:51:24;;;;;;;4.50;0.75;;;16.60;75.30;;;;;;2297323;54;21538;-69
2024/04/03 20:53:50;;;;;;;2.92;0.90;;;16.70;75.40;;;;;;2293013;54;21023;-68
2024/04/03 20:56:18;;;;;;;3.75;0.90;;;16.70;75.30;;;;;;2299010;54;21038;-68
2024/04/03 20:58:45;;;;;;;2.95;0.82;;;16.70;75.30;;;;;;2298580;54;20991;-69
2024/04/03 21:01:11;;;;;;;2.53;0.70;;;16.80;75.40;;;;;;2298904;54;20964;-70
2024/04/03 21:03:38;;;;;;;3.40;0.90;;;16.70;75.20;;;;;;2298231;54;20959;-70
2024/04/03 21:06:05;;;;;;;1.77;0.80;;;16.80;75.20;;;;;;2298765;54;21046;-70
2024/04/03 21:08:32;;;;;;;2.47;0.77;;;16.80;75.10;;;;;;2297948;54;20963;-69
2024/04/03 21:10:58;;;;;;;3.42;0.90;;;16.80;75.20;;;;;;2298911;54;20956;-70
2024/04/03 21:13:25;;;;;;;2.65;0.70;;;16.80;75.10;;;;;;2298106;54;21296;-69
2024/04/03 21:15:51;;;;;;;2.65;0.70;;;16.90;75.10;;;;;;2322462;54;20942;-69
2024/04/03 21:18:17;;;;;;;2.12;0.88;;;16.80;75.00;;;;;;2330119;54;20942;-69
2024/04/03 21:20:45;;;;;;;3.17;0.70;;;16.80;74.90;;;;;;2310177;54;21049;-69
2024/04/03 21:23:11;;;;;;;2.62;0.70;;;16.90;75.00;;;;;;2303873;54;21041;-69
2024/04/03 21:25:37;;;;;;;2.95;0.80;;;16.90;75.00;;;;;;2279828;54;21046;-69
2024/04/03 21:28:04;;;;;;;1.90;0.60;;;16.90;75.00;;;;;;2277717;54;21041;-68
2024/04/03 21:30:31;;;;;;;2.72;1.25;;;16.90;75.00;;;;;;2277269;54;21411;-69
2024/04/03 21:32:57;;;;;;;2.20;0.70;;;16.90;74.90;;;;;;2277501;54;20987;-68
2024/04/03 21:35:24;;;;;;;2.03;0.70;;;16.90;74.90;;;;;;2302648;54;21013;-69
2024/04/03 21:37:51;;;;;;;1.90;0.70;;;17.00;74.90;;;;;;2272638;55;21011;-70
2024/04/03 21:40:20;;;;;;;2.25;0.82;;;17.10;75.00;;;;;;2272141;55;20958;-68
2024/04/03 21:42:46;;;;;;;1.95;0.75;;;17.00;74.90;;;;;;2283239;54;20968;-68
2024/04/03 21:45:12;;;;;;;3.60;0.90;;;17.00;74.70;;;;;;2271911;55;21213;-69
2024/04/03 21:47:38;;;;;;;2.70;0.70;;;17.00;74.70;;;;;;2271117;55;21855;-70
2024/04/03 21:50:05;;;;;;;3.55;0.70;;;17.00;74.50;;;;;;2271490;55;21276;-70
2024/04/03 21:52:32;;;;;;;2.97;0.80;;;17.00;74.40;;;;;;2270660;55;21003;-70
2024/04/03 21:54:59;;;;;;;4.43;0.85;;;17.00;74.50;;;;;;2271709;55;20924;-68
2024/04/03 21:57:26;;;;;;;6.75;0.70;;;17.00;74.50;;;;;;2271191;55;21019;-68
2024/04/03 21:59:53;;;;;;;3.47;0.80;;;17.00;74.40;;;;;;2294334;56;22394;-68
2024/04/03 22:02:24;;;;;;;2.80;0.77;;;17.00;74.40;;;;;;2271400;55;20963;-68
2024/04/03 22:04:50;;;;;;;2.17;0.77;;;17.00;74.30;;;;;;2287657;54;20928;-69
2024/04/03 22:07:17;;;;;;;2.95;0.77;;;17.00;74.40;;;;;;2305097;55;20967;-69
2024/04/03 22:09:44;;;;;;;3.62;0.90;;;17.00;74.30;;;;;;2304168;54;21014;-68
2024/04/03 22:12:10;;;;;;;3.08;0.82;;;17.00;74.40;;;;;;2303688;55;21019;-69
2024/04/03 22:14:37;;;;;;;2.10;0.70;;;17.10;74.40;;;;;;2303193;54;21070;-69
2024/04/03 22:17:05;;;;;;;3.40;0.73;;;17.00;74.30;;;;;;2318538;54;21001;-67
2024/04/03 22:19:34;;;;;;;2.95;0.88;;;17.10;74.30;;;;;;2325256;55;20964;-70
2024/04/03 22:22:01;;;;;;;2.72;0.73;;;17.00;74.00;;;;;;2317448;55;21430;-69
2024/04/03 22:24:27;;;;;;;2.33;0.70;;;17.10;74.30;;;;;;2313023;55;20961;-69
2024/04/03 22:26:54;;;;;;;2.97;0.70;;;17.00;74.20;;;;;;2313280;55;20941;-70
2024/04/03 22:29:20;;;;;;;2.22;0.80;;;17.10;74.30;;;;;;2313683;55;21133;-70
2024/04/03 22:31:47;;;;;;;2.92;0.75;;;17.00;74.20;;;;;;2313162;55;21541;-69
2024/04/03 22:34:16;;;;;;;2.15;0.60;;;17.00;74.80;;;;;;2312793;55;21009;-68
2024/04/03 22:36:42;;;;;;;2.97;0.77;;;17.10;74.20;;;;;;2312621;55;21037;-69
2024/04/03 22:39:14;;;;;;;2.42;1.05;;;17.00;74.20;;;;;;2313352;55;21795;-70
2024/04/03 22:41:43;;;;;;;3.47;0.80;;;17.10;74.00;;;;;;2312667;55;20984;-68
2024/04/03 22:44:12;;;;;;;2.25;0.60;;;17.10;74.30;;;;;;2312777;55;21021;-70
2024/04/03 22:46:39;;;;;;;1.62;0.52;;;17.10;74.10;;;;;;2299270;55;20937;-69
2024/04/03 22:49:10;;;;;;;1.37;0.50;;;17.00;74.20;;;;;;2300093;55;21005;-69
2024/04/03 22:51:37;;;;;;;2.22;0.70;;;17.00;74.00;;;;;;2312910;56;21005;-68
2024/04/03 22:54:04;;;;;;;1.58;0.50;;;17.10;74.30;;;;;;2313171;56;21535;-69
2024/04/03 22:56:30;;;;;;;2.67;0.60;;;17.10;74.30;;;;;;2312667;56;21372;-69
2024/04/03 22:59:00;;;;;;;2.35;0.70;;;17.00;74.10;;;;;;2275560;55;20977;-70
2024/04/03 23:01:26;;;;;;;1.20;0.50;;;17.10;74.20;;;;;;2290133;54;21552;-70
2024/04/03 23:03:53;;;;;;;1.75;0.60;;;17.10;74.20;;;;;;2290251;54;20963;-68
2024/04/03 23:06:20;;;;;;;2.75;0.60;;;17.10;74.20;;;;;;2292522;54;20972;-69
2024/04/03 23:08:47;;;;;;;1.45;0.60;;;17.10;74.10;;;;;;2289937;55;21223;-69